sensor_id;sensor_type;location;lat;lon;timestamp;P1;durP1;ratioP1;P2;durP2;ratioP2
16973;SDS011;8603;46.944;7.412;2023-03-01T00:01:12;25.60;;;15.63;;
16973;SDS011;8603;46.944;7.412;2023-03-01T00:03:42;23.83;;;15.77;;
16973;SDS011;8603;46.944;7.412;2023-03-01T00:06:09;22.97;;;15.87;;
16973;SDS011;8603;46.944;7.412;2023-03-01T00:08:35;23.67;;;15.40;;
16973;SDS011;8603;46.944;7.412;2023-03-01T00:11:02;23.40;;;15.30;;
16973;SDS011;8603;46.944;7.412;2023-03-01T00:13:33;22.40;;;15.33;;
16973;SDS011;8603;46.944;7.412;2023-03-01T00:16:01;25.37;;;16.27;;
16973;SDS011;8603;46.944;7.412;2023-03-01T00:18:32;23.87;;;16.40;;
16973;SDS011;8603;46.944;7.412;2023-03-01T00:20:58;23.87;;;16.83;;
16973;SDS011;8603;46.944;7.412;2023-03-01T00:23:24;22.13;;;13.97;;
16973;SDS011;8603;46.944;7.412;2023-03-01T00:25:50;24.37;;;14.93;;
16973;SDS011;8603;46.944;7.412;2023-03-01T00:28:16;21.97;;;14.90;;
16973;SDS011;8603;46.944;7.412;2023-03-01T00:30:42;19.83;;;14.40;;
16973;SDS011;8603;46.944;7.412;2023-03-01T00:33:08;22.43;;;14.83;;
16973;SDS011;8603;46.944;7.412;2023-03-01T00:35:33;21.77;;;14.40;;
16973;SDS011;8603;46.944;7.412;2023-03-01T00:38:00;21.23;;;14.40;;
16973;SDS011;8603;46.944;7.412;2023-03-01T00:40:26;23.83;;;14.77;;
16973;SDS011;8603;46.944;7.412;2023-03-01T00:42:52;24.57;;;16.93;;
16973;SDS011;8603;46.944;7.412;2023-03-01T00:45:18;24.00;;;15.50;;
16973;SDS011;8603;46.944;7.412;2023-03-01T00:47:44;26.87;;;16.03;;
16973;SDS011;8603;46.944;7.412;2023-03-01T00:50:10;23.53;;;15.47;;
16973;SDS011;8603;46.944;7.412;2023-03-01T00:52:36;23.83;;;15.13;;
16973;SDS011;8603;46.944;7.412;2023-03-01T00:55:02;24.80;;;16.67;;
16973;SDS011;8603;46.944;7.412;2023-03-01T00:57:28;27.00;;;16.10;;
16973;SDS011;8603;46.944;7.412;2023-03-01T00:59:54;24.43;;;15.10;;
16973;SDS011;8603;46.944;7.412;2023-03-01T01:02:19;24.67;;;15.90;;
16973;SDS011;8603;46.944;7.412;2023-03-01T01:04:46;21.77;;;15.37;;
16973;SDS011;8603;46.944;7.412;2023-03-01T01:07:12;22.30;;;15.20;;
16973;SDS011;8603;46.944;7.412;2023-03-01T01:09:38;22.37;;;15.40;;
16973;SDS011;8603;46.944;7.412;2023-03-01T01:12:03;22.17;;;15.03;;
16973;SDS011;8603;46.944;7.412;2023-03-01T01:14:29;23.77;;;16.23;;
16973;SDS011;8603;46.944;7.412;2023-03-01T01:16:55;27.10;;;16.00;;
16973;SDS011;8603;46.944;7.412;2023-03-01T01:19:22;25.40;;;15.70;;
16973;SDS011;8603;46.944;7.412;2023-03-01T01:21:48;22.40;;;15.50;;
16973;SDS011;8603;46.944;7.412;2023-03-01T01:24:14;24.53;;;14.80;;
16973;SDS011;8603;46.944;7.412;2023-03-01T01:26:40;23.93;;;15.80;;
16973;SDS011;8603;46.944;7.412;2023-03-01T01:29:07;23.10;;;15.40;;
16973;SDS011;8603;46.944;7.412;2023-03-01T01:31:33;25.87;;;16.70;;
16973;SDS011;8603;46.944;7.412;2023-03-01T01:34:00;23.63;;;15.43;;
16973;SDS011;8603;46.944;7.412;2023-03-01T01:36:27;25.30;;;15.77;;
16973;SDS011;8603;46.944;7.412;2023-03-01T01:38:53;26.33;;;16.27;;
16973;SDS011;8603;46.944;7.412;2023-03-01T01:41:19;23.87;;;14.80;;
16973;SDS011;8603;46.944;7.412;2023-03-01T01:43:47;24.37;;;16.23;;
16973;SDS011;8603;46.944;7.412;2023-03-01T01:48:57;24.40;;;15.20;;
16973;SDS011;8603;46.944;7.412;2023-03-01T01:51:30;25.80;;;16.10;;
16973;SDS011;8603;46.944;7.412;2023-03-01T01:54:16;24.73;;;15.73;;
16973;SDS011;8603;46.944;7.412;2023-03-01T01:56:48;24.10;;;15.13;;
16973;SDS011;8603;46.944;7.412;2023-03-01T01:59:20;24.20;;;15.63;;
16973;SDS011;8603;46.944;7.412;2023-03-01T02:01:49;27.97;;;17.50;;
16973;SDS011;8603;46.944;7.412;2023-03-01T02:04:18;28.73;;;16.17;;
16973;SDS011;8603;46.944;7.412;2023-03-01T02:06:50;22.90;;;15.10;;
16973;SDS011;8603;46.944;7.412;2023-03-01T02:09:24;26.07;;;15.83;;
16973;SDS011;8603;46.944;7.412;2023-03-01T02:11:51;26.50;;;16.03;;
16973;SDS011;8603;46.944;7.412;2023-03-01T02:14:18;23.97;;;15.13;;
16973;SDS011;8603;46.944;7.412;2023-03-01T02:16:44;25.90;;;16.03;;
16973;SDS011;8603;46.944;7.412;2023-03-01T02:19:12;27.83;;;16.17;;
16973;SDS011;8603;46.944;7.412;2023-03-01T02:21:50;24.63;;;15.83;;
16973;SDS011;8603;46.944;7.412;2023-03-01T02:24:31;23.50;;;15.70;;
16973;SDS011;8603;46.944;7.412;2023-03-01T02:27:10;26.70;;;15.87;;
16973;SDS011;8603;46.944;7.412;2023-03-01T02:29:36;25.07;;;15.57;;
16973;SDS011;8603;46.944;7.412;2023-03-01T02:32:02;26.33;;;16.37;;
16973;SDS011;8603;46.944;7.412;2023-03-01T02:34:29;26.57;;;15.70;;
16973;SDS011;8603;46.944;7.412;2023-03-01T02:36:59;26.47;;;16.23;;
16973;SDS011;8603;46.944;7.412;2023-03-01T02:39:33;25.93;;;16.13;;
16973;SDS011;8603;46.944;7.412;2023-03-01T02:42:07;27.57;;;16.03;;
16973;SDS011;8603;46.944;7.412;2023-03-01T02:44:37;29.90;;;16.23;;
16973;SDS011;8603;46.944;7.412;2023-03-01T02:47:03;25.57;;;15.33;;
16973;SDS011;8603;46.944;7.412;2023-03-01T02:49:30;23.53;;;14.80;;
16973;SDS011;8603;46.944;7.412;2023-03-01T02:55:12;25.20;;;15.53;;
16973;SDS011;8603;46.944;7.412;2023-03-01T02:57:42;27.20;;;16.53;;
16973;SDS011;8603;46.944;7.412;2023-03-01T03:00:09;26.83;;;15.77;;
16973;SDS011;8603;46.944;7.412;2023-03-01T03:02:44;24.50;;;15.53;;
16973;SDS011;8603;46.944;7.412;2023-03-01T03:05:12;25.43;;;15.90;;
16973;SDS011;8603;46.944;7.412;2023-03-01T03:07:49;28.03;;;16.53;;
16973;SDS011;8603;46.944;7.412;2023-03-01T03:10:17;28.47;;;17.07;;
16973;SDS011;8603;46.944;7.412;2023-03-01T03:12:52;26.97;;;17.07;;
16973;SDS011;8603;46.944;7.412;2023-03-01T03:15:22;26.10;;;16.37;;
16973;SDS011;8603;46.944;7.412;2023-03-01T03:17:48;27.57;;;15.40;;
16973;SDS011;8603;46.944;7.412;2023-03-01T03:20:16;25.17;;;16.30;;
16973;SDS011;8603;46.944;7.412;2023-03-01T03:22:47;26.97;;;16.23;;
16973;SDS011;8603;46.944;7.412;2023-03-01T03:25:14;29.07;;;16.50;;
16973;SDS011;8603;46.944;7.412;2023-03-01T03:27:41;24.20;;;16.13;;
16973;SDS011;8603;46.944;7.412;2023-03-01T03:30:10;26.93;;;17.50;;
16973;SDS011;8603;46.944;7.412;2023-03-01T03:32:39;28.53;;;17.20;;
16973;SDS011;8603;46.944;7.412;2023-03-01T03:35:06;26.63;;;16.83;;
16973;SDS011;8603;46.944;7.412;2023-03-01T03:37:37;27.87;;;17.53;;
16973;SDS011;8603;46.944;7.412;2023-03-01T03:40:25;25.53;;;16.20;;
16973;SDS011;8603;46.944;7.412;2023-03-01T03:42:53;26.77;;;16.03;;
16973;SDS011;8603;46.944;7.412;2023-03-01T03:45:19;27.73;;;16.80;;
16973;SDS011;8603;46.944;7.412;2023-03-01T03:47:45;27.10;;;16.87;;
16973;SDS011;8603;46.944;7.412;2023-03-01T03:50:11;28.57;;;16.53;;
16973;SDS011;8603;46.944;7.412;2023-03-01T03:52:37;31.57;;;17.90;;
16973;SDS011;8603;46.944;7.412;2023-03-01T03:55:04;28.70;;;17.40;;
16973;SDS011;8603;46.944;7.412;2023-03-01T03:57:39;28.93;;;16.63;;
16973;SDS011;8603;46.944;7.412;2023-03-01T04:00:06;24.27;;;15.70;;
16973;SDS011;8603;46.944;7.412;2023-03-01T04:02:38;29.43;;;17.17;;
16973;SDS011;8603;46.944;7.412;2023-03-01T04:05:07;29.93;;;17.40;;
16973;SDS011;8603;46.944;7.412;2023-03-01T04:07:35;26.17;;;15.93;;
16973;SDS011;8603;46.944;7.412;2023-03-01T04:10:02;27.77;;;16.30;;
16973;SDS011;8603;46.944;7.412;2023-03-01T04:12:29;29.73;;;17.40;;
16973;SDS011;8603;46.944;7.412;2023-03-01T04:14:54;27.47;;;15.93;;
16973;SDS011;8603;46.944;7.412;2023-03-01T04:17:20;27.13;;;16.50;;
16973;SDS011;8603;46.944;7.412;2023-03-01T04:19:45;29.30;;;17.53;;
16973;SDS011;8603;46.944;7.412;2023-03-01T04:22:13;29.00;;;17.00;;
16973;SDS011;8603;46.944;7.412;2023-03-01T04:24:42;29.27;;;17.37;;
16973;SDS011;8603;46.944;7.412;2023-03-01T04:27:08;29.43;;;17.43;;
16973;SDS011;8603;46.944;7.412;2023-03-01T04:29:34;28.03;;;17.10;;
16973;SDS011;8603;46.944;7.412;2023-03-01T04:31:59;29.27;;;16.53;;
16973;SDS011;8603;46.944;7.412;2023-03-01T04:34:25;28.23;;;17.67;;
16973;SDS011;8603;46.944;7.412;2023-03-01T04:36:54;29.10;;;16.30;;
16973;SDS011;8603;46.944;7.412;2023-03-01T04:39:19;28.33;;;16.43;;
16973;SDS011;8603;46.944;7.412;2023-03-01T04:41:45;31.53;;;18.27;;
16973;SDS011;8603;46.944;7.412;2023-03-01T04:44:11;29.83;;;18.53;;
16973;SDS011;8603;46.944;7.412;2023-03-01T04:46:37;28.13;;;16.87;;
16973;SDS011;8603;46.944;7.412;2023-03-01T04:49:03;27.97;;;16.40;;
16973;SDS011;8603;46.944;7.412;2023-03-01T04:51:28;30.73;;;17.33;;
16973;SDS011;8603;46.944;7.412;2023-03-01T04:53:54;28.43;;;17.80;;
16973;SDS011;8603;46.944;7.412;2023-03-01T04:56:20;27.30;;;16.50;;
16973;SDS011;8603;46.944;7.412;2023-03-01T04:58:48;31.50;;;18.73;;
16973;SDS011;8603;46.944;7.412;2023-03-01T05:01:14;26.23;;;16.33;;
16973;SDS011;8603;46.944;7.412;2023-03-01T05:03:49;27.53;;;16.90;;
16973;SDS011;8603;46.944;7.412;2023-03-01T05:06:16;27.57;;;16.43;;
16973;SDS011;8603;46.944;7.412;2023-03-01T05:08:42;30.10;;;17.30;;
16973;SDS011;8603;46.944;7.412;2023-03-01T05:11:08;33.00;;;18.33;;
16973;SDS011;8603;46.944;7.412;2023-03-01T05:13:35;30.63;;;17.73;;
16973;SDS011;8603;46.944;7.412;2023-03-01T05:16:02;29.57;;;16.50;;
16973;SDS011;8603;46.944;7.412;2023-03-01T05:18:29;30.07;;;17.67;;
16973;SDS011;8603;46.944;7.412;2023-03-01T05:21:01;26.77;;;16.27;;
16973;SDS011;8603;46.944;7.412;2023-03-01T05:23:30;28.33;;;15.97;;
16973;SDS011;8603;46.944;7.412;2023-03-01T05:25:58;39.47;;;24.27;;
16973;SDS011;8603;46.944;7.412;2023-03-01T05:28:25;42.17;;;24.13;;
16973;SDS011;8603;46.944;7.412;2023-03-01T05:30:52;28.83;;;17.43;;
16973;SDS011;8603;46.944;7.412;2023-03-01T05:33:19;29.00;;;16.93;;
16973;SDS011;8603;46.944;7.412;2023-03-01T05:35:46;31.63;;;17.80;;
16973;SDS011;8603;46.944;7.412;2023-03-01T05:38:14;27.57;;;16.43;;
16973;SDS011;8603;46.944;7.412;2023-03-01T05:40:44;28.67;;;17.37;;
16973;SDS011;8603;46.944;7.412;2023-03-01T05:43:12;27.00;;;16.60;;
16973;SDS011;8603;46.944;7.412;2023-03-01T05:45:39;28.67;;;16.70;;
16973;SDS011;8603;46.944;7.412;2023-03-01T05:48:06;26.73;;;16.50;;
16973;SDS011;8603;46.944;7.412;2023-03-01T05:50:34;27.73;;;16.83;;
16973;SDS011;8603;46.944;7.412;2023-03-01T05:53:03;28.47;;;16.07;;
16973;SDS011;8603;46.944;7.412;2023-03-01T05:55:31;27.43;;;16.27;;
16973;SDS011;8603;46.944;7.412;2023-03-01T05:57:58;26.37;;;15.87;;
16973;SDS011;8603;46.944;7.412;2023-03-01T06:00:25;29.17;;;16.73;;
16973;SDS011;8603;46.944;7.412;2023-03-01T06:02:51;26.30;;;15.10;;
16973;SDS011;8603;46.944;7.412;2023-03-01T06:05:19;25.93;;;16.07;;
16973;SDS011;8603;46.944;7.412;2023-03-01T06:07:45;27.07;;;15.10;;
16973;SDS011;8603;46.944;7.412;2023-03-01T06:10:12;25.40;;;15.53;;
16973;SDS011;8603;46.944;7.412;2023-03-01T06:12:38;31.30;;;17.43;;
16973;SDS011;8603;46.944;7.412;2023-03-01T06:15:05;28.60;;;16.43;;
16973;SDS011;8603;46.944;7.412;2023-03-01T06:17:33;27.93;;;16.33;;
16973;SDS011;8603;46.944;7.412;2023-03-01T06:20:02;30.37;;;16.93;;
16973;SDS011;8603;46.944;7.412;2023-03-01T06:22:30;30.60;;;17.20;;
16973;SDS011;8603;46.944;7.412;2023-03-01T06:24:55;30.57;;;17.17;;
16973;SDS011;8603;46.944;7.412;2023-03-01T06:27:26;30.50;;;17.33;;
16973;SDS011;8603;46.944;7.412;2023-03-01T06:29:52;29.53;;;16.47;;
16973;SDS011;8603;46.944;7.412;2023-03-01T06:32:18;27.73;;;16.60;;
16973;SDS011;8603;46.944;7.412;2023-03-01T06:34:44;30.43;;;17.70;;
16973;SDS011;8603;46.944;7.412;2023-03-01T06:37:10;30.57;;;16.63;;
16973;SDS011;8603;46.944;7.412;2023-03-01T06:39:36;32.50;;;17.53;;
16973;SDS011;8603;46.944;7.412;2023-03-01T06:42:01;30.50;;;17.80;;
16973;SDS011;8603;46.944;7.412;2023-03-01T06:44:27;27.00;;;16.37;;
16973;SDS011;8603;46.944;7.412;2023-03-01T06:46:53;30.13;;;17.33;;
16973;SDS011;8603;46.944;7.412;2023-03-01T06:49:19;26.97;;;15.83;;
16973;SDS011;8603;46.944;7.412;2023-03-01T06:51:45;29.00;;;16.53;;
16973;SDS011;8603;46.944;7.412;2023-03-01T06:54:11;29.47;;;18.03;;
16973;SDS011;8603;46.944;7.412;2023-03-01T06:56:37;26.50;;;16.50;;
16973;SDS011;8603;46.944;7.412;2023-03-01T06:59:03;28.87;;;16.37;;
16973;SDS011;8603;46.944;7.412;2023-03-01T07:01:29;27.90;;;16.47;;
16973;SDS011;8603;46.944;7.412;2023-03-01T07:03:55;28.20;;;17.30;;
16973;SDS011;8603;46.944;7.412;2023-03-01T07:06:21;27.77;;;16.87;;
16973;SDS011;8603;46.944;7.412;2023-03-01T07:08:48;26.90;;;15.53;;
16973;SDS011;8603;46.944;7.412;2023-03-01T07:11:13;29.50;;;17.17;;
16973;SDS011;8603;46.944;7.412;2023-03-01T07:13:39;26.60;;;15.30;;
16973;SDS011;8603;46.944;7.412;2023-03-01T07:16:05;28.13;;;16.90;;
16973;SDS011;8603;46.944;7.412;2023-03-01T07:18:32;28.73;;;15.83;;
16973;SDS011;8603;46.944;7.412;2023-03-01T07:20:57;28.60;;;17.13;;
16973;SDS011;8603;46.944;7.412;2023-03-01T07:23:23;29.60;;;16.67;;
16973;SDS011;8603;46.944;7.412;2023-03-01T07:25:52;29.40;;;16.37;;
16973;SDS011;8603;46.944;7.412;2023-03-01T07:28:18;28.13;;;15.37;;
16973;SDS011;8603;46.944;7.412;2023-03-01T07:30:44;28.80;;;16.00;;
16973;SDS011;8603;46.944;7.412;2023-03-01T07:33:10;27.77;;;17.10;;
16973;SDS011;8603;46.944;7.412;2023-03-01T07:35:36;28.20;;;16.50;;
16973;SDS011;8603;46.944;7.412;2023-03-01T07:38:10;32.83;;;17.43;;
16973;SDS011;8603;46.944;7.412;2023-03-01T07:40:36;27.07;;;15.87;;
16973;SDS011;8603;46.944;7.412;2023-03-01T07:43:02;28.47;;;16.40;;
16973;SDS011;8603;46.944;7.412;2023-03-01T07:45:27;29.67;;;16.70;;
16973;SDS011;8603;46.944;7.412;2023-03-01T07:47:54;27.00;;;16.17;;
16973;SDS011;8603;46.944;7.412;2023-03-01T07:50:20;27.57;;;16.30;;
16973;SDS011;8603;46.944;7.412;2023-03-01T07:52:48;29.47;;;16.10;;
16973;SDS011;8603;46.944;7.412;2023-03-01T07:55:17;28.77;;;17.07;;
16973;SDS011;8603;46.944;7.412;2023-03-01T07:57:44;28.30;;;15.97;;
16973;SDS011;8603;46.944;7.412;2023-03-01T08:00:10;29.83;;;16.77;;
16973;SDS011;8603;46.944;7.412;2023-03-01T08:02:36;28.60;;;16.23;;
16973;SDS011;8603;46.944;7.412;2023-03-01T08:05:02;29.00;;;16.97;;
16973;SDS011;8603;46.944;7.412;2023-03-01T08:07:28;29.53;;;18.70;;
16973;SDS011;8603;46.944;7.412;2023-03-01T08:09:53;26.67;;;15.80;;
16973;SDS011;8603;46.944;7.412;2023-03-01T08:12:19;28.77;;;16.80;;
16973;SDS011;8603;46.944;7.412;2023-03-01T08:14:45;28.63;;;16.17;;
16973;SDS011;8603;46.944;7.412;2023-03-01T08:17:12;28.43;;;16.37;;
16973;SDS011;8603;46.944;7.412;2023-03-01T08:19:39;26.30;;;15.73;;
16973;SDS011;8603;46.944;7.412;2023-03-01T08:22:04;26.70;;;15.70;;
16973;SDS011;8603;46.944;7.412;2023-03-01T08:24:30;29.23;;;15.93;;
16973;SDS011;8603;46.944;7.412;2023-03-01T08:26:56;31.80;;;18.17;;
16973;SDS011;8603;46.944;7.412;2023-03-01T08:29:21;28.47;;;15.83;;
16973;SDS011;8603;46.944;7.412;2023-03-01T08:31:49;30.30;;;18.00;;
16973;SDS011;8603;46.944;7.412;2023-03-01T08:34:15;28.70;;;17.07;;
16973;SDS011;8603;46.944;7.412;2023-03-01T08:36:43;30.33;;;16.83;;
16973;SDS011;8603;46.944;7.412;2023-03-01T08:39:11;28.17;;;16.83;;
16973;SDS011;8603;46.944;7.412;2023-03-01T08:41:39;30.87;;;16.60;;
16973;SDS011;8603;46.944;7.412;2023-03-01T08:44:05;31.37;;;16.77;;
16973;SDS011;8603;46.944;7.412;2023-03-01T08:46:34;29.97;;;16.80;;
16973;SDS011;8603;46.944;7.412;2023-03-01T08:49:05;28.30;;;15.87;;
16973;SDS011;8603;46.944;7.412;2023-03-01T08:51:32;26.03;;;16.23;;
16973;SDS011;8603;46.944;7.412;2023-03-01T08:54:02;27.40;;;16.60;;
16973;SDS011;8603;46.944;7.412;2023-03-01T08:56:31;27.33;;;15.50;;
16973;SDS011;8603;46.944;7.412;2023-03-01T08:58:57;26.77;;;16.23;;
16973;SDS011;8603;46.944;7.412;2023-03-01T09:01:23;27.70;;;15.60;;
16973;SDS011;8603;46.944;7.412;2023-03-01T09:03:51;25.10;;;14.97;;
16973;SDS011;8603;46.944;7.412;2023-03-01T09:06:17;26.53;;;15.07;;
16973;SDS011;8603;46.944;7.412;2023-03-01T09:08:43;27.07;;;16.27;;
16973;SDS011;8603;46.944;7.412;2023-03-01T09:11:15;26.23;;;15.67;;
16973;SDS011;8603;46.944;7.412;2023-03-01T09:13:43;26.50;;;15.40;;
16973;SDS011;8603;46.944;7.412;2023-03-01T09:16:10;28.70;;;15.50;;
16973;SDS011;8603;46.944;7.412;2023-03-01T09:18:37;29.47;;;16.43;;
16973;SDS011;8603;46.944;7.412;2023-03-01T09:21:11;27.30;;;15.87;;
16973;SDS011;8603;46.944;7.412;2023-03-01T09:23:39;28.23;;;16.53;;
16973;SDS011;8603;46.944;7.412;2023-03-01T09:26:07;27.73;;;15.03;;
16973;SDS011;8603;46.944;7.412;2023-03-01T09:28:34;27.97;;;15.17;;
16973;SDS011;8603;46.944;7.412;2023-03-01T09:31:01;28.77;;;16.33;;
16973;SDS011;8603;46.944;7.412;2023-03-01T09:33:27;29.03;;;17.07;;
16973;SDS011;8603;46.944;7.412;2023-03-01T09:35:57;29.63;;;16.27;;
16973;SDS011;8603;46.944;7.412;2023-03-01T09:38:24;29.63;;;16.57;;
16973;SDS011;8603;46.944;7.412;2023-03-01T09:40:50;28.10;;;16.57;;
16973;SDS011;8603;46.944;7.412;2023-03-01T09:43:18;28.60;;;16.33;;
16973;SDS011;8603;46.944;7.412;2023-03-01T09:45:53;26.53;;;16.20;;
16973;SDS011;8603;46.944;7.412;2023-03-01T09:48:21;26.07;;;15.50;;
16973;SDS011;8603;46.944;7.412;2023-03-01T09:50:51;25.57;;;16.33;;
16973;SDS011;8603;46.944;7.412;2023-03-01T09:53:21;24.07;;;14.80;;
16973;SDS011;8603;46.944;7.412;2023-03-01T09:55:51;32.03;;;15.97;;
16973;SDS011;8603;46.944;7.412;2023-03-01T09:58:58;30.10;;;18.23;;
16973;SDS011;8603;46.944;7.412;2023-03-01T10:07:07;26.87;;;16.03;;
16973;SDS011;8603;46.944;7.412;2023-03-01T10:09:53;29.23;;;15.73;;
16973;SDS011;8603;46.944;7.412;2023-03-01T10:12:23;27.93;;;14.90;;
16973;SDS011;8603;46.944;7.412;2023-03-01T10:20:59;24.97;;;14.50;;
16973;SDS011;8603;46.944;7.412;2023-03-01T10:23:19;26.93;;;15.77;;
16973;SDS011;8603;46.944;7.412;2023-03-01T10:28:29;24.43;;;15.27;;
16973;SDS011;8603;46.944;7.412;2023-03-01T10:31:08;26.37;;;15.53;;
16973;SDS011;8603;46.944;7.412;2023-03-01T10:33:39;27.83;;;15.57;;
16973;SDS011;8603;46.944;7.412;2023-03-01T10:36:06;29.20;;;16.63;;
16973;SDS011;8603;46.944;7.412;2023-03-01T10:38:46;26.40;;;15.33;;
16973;SDS011;8603;46.944;7.412;2023-03-01T10:41:23;27.73;;;15.80;;
16973;SDS011;8603;46.944;7.412;2023-03-01T10:43:52;27.17;;;15.47;;
16973;SDS011;8603;46.944;7.412;2023-03-01T10:46:23;23.57;;;14.13;;
16973;SDS011;8603;46.944;7.412;2023-03-01T10:51:49;28.47;;;14.73;;
16973;SDS011;8603;46.944;7.412;2023-03-01T10:54:20;26.30;;;16.00;;
16973;SDS011;8603;46.944;7.412;2023-03-01T10:56:55;24.50;;;15.37;;
16973;SDS011;8603;46.944;7.412;2023-03-01T10:59:24;26.13;;;14.60;;
16973;SDS011;8603;46.944;7.412;2023-03-01T11:04:39;27.83;;;15.53;;
16973;SDS011;8603;46.944;7.412;2023-03-01T11:07:20;24.67;;;13.67;;
16973;SDS011;8603;46.944;7.412;2023-03-01T11:09:46;27.73;;;16.20;;
16973;SDS011;8603;46.944;7.412;2023-03-01T11:12:13;27.10;;;14.10;;
16973;SDS011;8603;46.944;7.412;2023-03-01T11:14:46;26.60;;;16.17;;
16973;SDS011;8603;46.944;7.412;2023-03-01T11:17:24;25.10;;;15.20;;
16973;SDS011;8603;46.944;7.412;2023-03-01T11:20:18;28.23;;;17.90;;
16973;SDS011;8603;46.944;7.412;2023-03-01T11:22:56;25.47;;;15.00;;
16973;SDS011;8603;46.944;7.412;2023-03-01T11:25:27;24.03;;;15.13;;
16973;SDS011;8603;46.944;7.412;2023-03-01T11:27:57;27.03;;;15.40;;
16973;SDS011;8603;46.944;7.412;2023-03-01T11:33:16;23.50;;;13.53;;
16973;SDS011;8603;46.944;7.412;2023-03-01T11:36:05;23.73;;;14.43;;
16973;SDS011;8603;46.944;7.412;2023-03-01T11:38:53;23.40;;;13.67;;
16973;SDS011;8603;46.944;7.412;2023-03-01T11:41:21;27.80;;;14.67;;
16973;SDS011;8603;46.944;7.412;2023-03-01T11:43:58;23.50;;;14.70;;
16973;SDS011;8603;46.944;7.412;2023-03-01T11:54:53;27.03;;;15.23;;
16973;SDS011;8603;46.944;7.412;2023-03-01T12:03:25;26.57;;;14.60;;
16973;SDS011;8603;46.944;7.412;2023-03-01T12:17:11;24.63;;;14.67;;
16973;SDS011;8603;46.944;7.412;2023-03-01T12:22:52;24.03;;;14.53;;
16973;SDS011;8603;46.944;7.412;2023-03-01T12:29:00;24.90;;;14.23;;
16973;SDS011;8603;46.944;7.412;2023-03-01T12:31:58;26.77;;;15.77;;
16973;SDS011;8603;46.944;7.412;2023-03-01T12:50:17;25.70;;;14.83;;
16973;SDS011;8603;46.944;7.412;2023-03-01T12:52:56;22.87;;;13.60;;
16973;SDS011;8603;46.944;7.412;2023-03-01T12:55:29;23.40;;;13.63;;
16973;SDS011;8603;46.944;7.412;2023-03-01T13:00:45;24.67;;;14.23;;
16973;SDS011;8603;46.944;7.412;2023-03-01T13:03:29;23.17;;;13.80;;
16973;SDS011;8603;46.944;7.412;2023-03-01T13:09:05;23.23;;;13.83;;
16973;SDS011;8603;46.944;7.412;2023-03-01T13:11:44;24.77;;;14.20;;
16973;SDS011;8603;46.944;7.412;2023-03-01T13:16:45;23.37;;;14.97;;
16973;SDS011;8603;46.944;7.412;2023-03-01T13:19:17;25.43;;;14.33;;
16973;SDS011;8603;46.944;7.412;2023-03-01T13:21:45;21.23;;;13.93;;
16973;SDS011;8603;46.944;7.412;2023-03-01T13:24:29;24.57;;;14.00;;
16973;SDS011;8603;46.944;7.412;2023-03-01T13:27:10;24.37;;;13.93;;
16973;SDS011;8603;46.944;7.412;2023-03-01T13:29:58;24.13;;;13.17;;
16973;SDS011;8603;46.944;7.412;2023-03-01T13:32:31;22.40;;;13.17;;
16973;SDS011;8603;46.944;7.412;2023-03-01T13:34:59;26.87;;;14.50;;
16973;SDS011;8603;46.944;7.412;2023-03-01T13:37:48;27.23;;;14.07;;
16973;SDS011;8603;46.944;7.412;2023-03-01T13:42:51;21.70;;;13.30;;
16973;SDS011;8603;46.944;7.412;2023-03-01T13:48:15;22.40;;;14.27;;
16973;SDS011;8603;46.944;7.412;2023-03-01T13:51:03;23.00;;;14.23;;
16973;SDS011;8603;46.944;7.412;2023-03-01T13:53:36;22.53;;;14.17;;
16973;SDS011;8603;46.944;7.412;2023-03-01T13:56:08;22.93;;;13.07;;
16973;SDS011;8603;46.944;7.412;2023-03-01T13:58:48;23.90;;;14.17;;
16973;SDS011;8603;46.944;7.412;2023-03-01T14:01:26;24.43;;;13.57;;
16973;SDS011;8603;46.944;7.412;2023-03-01T14:03:59;24.77;;;14.43;;
16973;SDS011;8603;46.944;7.412;2023-03-01T14:06:27;24.50;;;14.00;;
16973;SDS011;8603;46.944;7.412;2023-03-01T14:09:10;23.13;;;13.93;;
16973;SDS011;8603;46.944;7.412;2023-03-01T14:14:45;20.90;;;13.50;;
16973;SDS011;8603;46.944;7.412;2023-03-01T14:17:34;23.07;;;13.33;;
16973;SDS011;8603;46.944;7.412;2023-03-01T14:20:11;23.30;;;13.77;;
16973;SDS011;8603;46.944;7.412;2023-03-01T14:22:47;25.80;;;14.50;;
16973;SDS011;8603;46.944;7.412;2023-03-01T14:25:34;21.83;;;13.40;;
16973;SDS011;8603;46.944;7.412;2023-03-01T14:28:20;24.13;;;13.93;;
16973;SDS011;8603;46.944;7.412;2023-03-01T14:30:58;24.77;;;13.97;;
16973;SDS011;8603;46.944;7.412;2023-03-01T14:33:27;23.93;;;13.00;;
16973;SDS011;8603;46.944;7.412;2023-03-01T14:36:00;24.47;;;13.97;;
16973;SDS011;8603;46.944;7.412;2023-03-01T14:38:36;24.63;;;13.93;;
16973;SDS011;8603;46.944;7.412;2023-03-01T14:41:05;22.93;;;13.70;;
16973;SDS011;8603;46.944;7.412;2023-03-01T14:43:42;23.90;;;14.77;;
16973;SDS011;8603;46.944;7.412;2023-03-01T14:51:53;25.10;;;13.60;;
16973;SDS011;8603;46.944;7.412;2023-03-01T14:57:20;22.87;;;14.50;;
16973;SDS011;8603;46.944;7.412;2023-03-01T14:59:47;24.77;;;14.07;;
16973;SDS011;8603;46.944;7.412;2023-03-01T15:02:17;23.40;;;13.60;;
16973;SDS011;8603;46.944;7.412;2023-03-01T15:04:45;22.13;;;14.10;;
16973;SDS011;8603;46.944;7.412;2023-03-01T15:07:13;21.70;;;13.73;;
16973;SDS011;8603;46.944;7.412;2023-03-01T15:09:39;25.50;;;13.87;;
16973;SDS011;8603;46.944;7.412;2023-03-01T15:14:53;21.50;;;14.13;;
16973;SDS011;8603;46.944;7.412;2023-03-01T15:17:26;22.73;;;14.63;;
16973;SDS011;8603;46.944;7.412;2023-03-01T15:19:54;22.27;;;14.17;;
16973;SDS011;8603;46.944;7.412;2023-03-01T15:22:19;20.63;;;13.50;;
16973;SDS011;8603;46.944;7.412;2023-03-01T15:24:49;24.37;;;13.80;;
16973;SDS011;8603;46.944;7.412;2023-03-01T15:27:16;22.90;;;14.23;;
16973;SDS011;8603;46.944;7.412;2023-03-01T15:29:52;19.90;;;13.13;;
16973;SDS011;8603;46.944;7.412;2023-03-01T15:32:29;23.30;;;14.23;;
16973;SDS011;8603;46.944;7.412;2023-03-01T15:34:57;20.00;;;13.03;;
16973;SDS011;8603;46.944;7.412;2023-03-01T15:37:39;22.33;;;14.17;;
16973;SDS011;8603;46.944;7.412;2023-03-01T15:42:49;25.10;;;14.43;;
16973;SDS011;8603;46.944;7.412;2023-03-01T15:47:52;23.47;;;13.90;;
16973;SDS011;8603;46.944;7.412;2023-03-01T15:50:40;24.60;;;14.03;;
16973;SDS011;8603;46.944;7.412;2023-03-01T15:53:10;24.60;;;14.47;;
16973;SDS011;8603;46.944;7.412;2023-03-01T15:55:39;22.93;;;14.30;;
16973;SDS011;8603;46.944;7.412;2023-03-01T15:58:12;27.47;;;15.70;;
16973;SDS011;8603;46.944;7.412;2023-03-01T16:00:39;24.37;;;14.50;;
16973;SDS011;8603;46.944;7.412;2023-03-01T16:03:05;27.60;;;15.47;;
16973;SDS011;8603;46.944;7.412;2023-03-01T16:05:33;25.63;;;14.63;;
16973;SDS011;8603;46.944;7.412;2023-03-01T16:08:04;25.73;;;15.00;;
16973;SDS011;8603;46.944;7.412;2023-03-01T16:10:31;24.53;;;14.80;;
16973;SDS011;8603;46.944;7.412;2023-03-01T16:12:58;25.33;;;15.23;;
16973;SDS011;8603;46.944;7.412;2023-03-01T16:15:25;26.13;;;15.40;;
16973;SDS011;8603;46.944;7.412;2023-03-01T16:17:56;26.40;;;15.60;;
16973;SDS011;8603;46.944;7.412;2023-03-01T16:20:28;25.93;;;14.40;;
16973;SDS011;8603;46.944;7.412;2023-03-01T16:22:54;25.03;;;15.17;;
16973;SDS011;8603;46.944;7.412;2023-03-01T16:25:27;26.33;;;15.10;;
16973;SDS011;8603;46.944;7.412;2023-03-01T16:27:57;25.47;;;15.57;;
16973;SDS011;8603;46.944;7.412;2023-03-01T16:30:25;24.63;;;15.63;;
16973;SDS011;8603;46.944;7.412;2023-03-01T16:32:50;25.27;;;14.23;;
16973;SDS011;8603;46.944;7.412;2023-03-01T16:35:17;23.63;;;14.90;;
16973;SDS011;8603;46.944;7.412;2023-03-01T16:37:45;26.37;;;14.67;;